Time;durP1;ratioP1;P1;durP2;ratioP2;P2;SDS_P1;SDS_P2;PMS_P1;PMS_P2;Temp;Humidity;BMP_temperature;BMP_pressure;BME280_temperature;BME280_humidity;BME280_pressure;Samples;Min_cycle;Max_cycle;Signal;HPM_P1;HPM_P2
2024/01/09 00:00:25;;;;;;;63.70;20.10;;;;;;;-15.45;73.11;100703.61;135498;1259;22612;-81
2024/01/09 00:03:48;;;;;;;40.30;14.20;;;;;;;-15.47;72.72;100706.81;135548;1275;22605;-81
2024/01/09 00:06:50;;;;;;;48.70;15.50;;;;;;;-15.51;72.80;100705.39;135459;1275;21941;-81
2024/01/09 00:09:53;;;;;;;41.20;15.50;;;;;;;-15.55;72.47;100706.70;135501;1275;24993;-81
2024/01/09 00:12:55;;;;;;;55.70;19.50;;;;;;;-15.63;72.32;100710.16;135477;1275;22602;-81
2024/01/09 00:15:58;;;;;;;44.70;16.30;;;;;;;-15.67;71.81;100714.19;135503;1270;22586;-81
2024/01/09 00:19:00;;;;;;;41.10;14.90;;;;;;;-15.68;71.78;100722.89;135489;1271;22673;-81
2024/01/09 00:22:03;;;;;;;42.00;14.20;;;;;;;-15.74;71.66;100725.61;135477;1275;22564;-82
2024/01/09 00:25:06;;;;;;;45.90;15.00;;;;;;;-15.81;72.27;100723.38;135460;1275;22704;-81
2024/01/09 00:28:08;;;;;;;47.50;18.60;;;;;;;-15.79;72.46;100725.42;135443;1275;22725;-81
2024/01/09 00:31:11;;;;;;;50.90;18.50;;;;;;;-15.74;72.75;100731.95;135475;1275;24211;-80
2024/01/09 00:34:13;;;;;;;63.10;18.90;;;;;;;-15.69;72.03;100735.34;135349;1275;22593;-81
2024/01/09 00:37:15;;;;;;;61.70;19.90;;;;;;;-15.73;71.98;100738.85;135497;1275;25009;-83
2024/01/09 00:40:18;;;;;;;54.60;19.80;;;;;;;-15.78;71.85;100741.11;135506;1275;25290;-81
2024/01/09 00:43:20;;;;;;;74.90;24.10;;;;;;;-15.81;71.61;100741.00;135437;1275;24197;-81
2024/01/09 00:46:23;;;;;;;77.80;24.90;;;;;;;-15.81;71.95;100741.09;135430;1275;22579;-81
2024/01/09 00:49:25;;;;;;;74.00;28.20;;;;;;;-15.84;72.26;100743.79;135446;1275;22883;-82
2024/01/09 00:52:28;;;;;;;79.60;27.00;;;;;;;-15.84;72.29;100747.74;135500;1275;22581;-82
2024/01/09 00:55:30;;;;;;;84.30;27.90;;;;;;;-15.89;72.20;100752.14;135489;1275;22748;-82
2024/01/09 00:58:33;;;;;;;80.70;24.90;;;;;;;-15.94;72.68;100749.16;135481;1276;22604;-81
2024/01/09 01:01:35;;;;;;;77.30;25.70;;;;;;;-15.91;72.74;100747.55;135324;1275;22608;-81
2024/01/09 01:04:37;;;;;;;91.30;30.30;;;;;;;-15.91;72.07;100754.10;135299;1276;22996;-81
2024/01/09 01:07:40;;;;;;;77.80;25.90;;;;;;;-15.94;72.24;100761.03;135253;1254;21880;-81
2024/01/09 01:10:42;;;;;;;82.90;24.90;;;;;;;-15.94;72.36;100760.39;135103;1276;21825;-82
2024/01/09 01:13:45;;;;;;;72.30;25.70;;;;;;;-15.97;71.47;100759.23;135937;1276;22580;-80
2024/01/09 01:16:47;;;;;;;67.10;22.60;;;;;;;-16.00;71.56;100758.79;135945;1276;22618;-79
2024/01/09 01:19:50;;;;;;;55.80;20.90;;;;;;;-16.04;71.89;100755.58;135028;1276;22522;-78
2024/01/09 01:22:52;;;;;;;58.50;20.30;;;;;;;-16.03;72.18;100753.53;135081;1275;22826;-78
2024/01/09 01:25:54;;;;;;;49.90;18.30;;;;;;;-16.03;72.18;100755.45;135212;1275;22613;-79
2024/01/09 01:28:57;;;;;;;58.50;18.70;;;;;;;-16.06;71.96;100753.59;135339;1276;22620;-82
2024/01/09 01:31:59;;;;;;;64.40;21.60;;;;;;;-16.07;72.05;100757.96;135717;1276;22603;-81
2024/01/09 01:35:02;;;;;;;64.00;19.30;;;;;;;-16.11;71.36;100758.84;135690;1276;24855;-81
2024/01/09 01:38:04;;;;;;;54.10;20.60;;;;;;;-16.18;71.29;100757.27;135573;1276;22689;-81
2024/01/09 01:41:07;;;;;;;54.90;19.80;;;;;;;-16.23;71.31;100761.34;135488;1276;22661;-83
2024/01/09 01:44:09;;;;;;;47.80;19.40;;;;;;;-16.25;71.40;100760.63;135516;1276;22627;-82
2024/01/09 01:47:12;;;;;;;46.30;17.40;;;;;;;-16.27;71.21;100766.73;135861;1276;22585;-81
2024/01/09 01:50:14;;;;;;;58.40;19.80;;;;;;;-16.29;71.28;100769.14;135948;1276;22611;-80
2024/01/09 01:53:16;;;;;;;51.10;19.30;;;;;;;-16.31;71.07;100772.42;135613;1276;22573;-80
2024/01/09 01:56:19;;;;;;;54.30;19.50;;;;;;;-16.36;70.80;100771.26;135550;1276;22631;-81
2024/01/09 01:59:21;;;;;;;56.40;19.30;;;;;;;-16.40;70.66;100772.77;135506;1276;22593;-81
2024/01/09 02:02:24;;;;;;;72.10;26.70;;;;;;;-16.45;70.47;100773.55;135503;1276;22665;-82
2024/01/09 02:05:26;;;;;;;65.70;22.70;;;;;;;-16.47;70.23;100772.91;135502;1276;22739;-83
2024/01/09 02:08:28;;;;;;;95.60;37.70;;;;;;;-16.54;70.13;100775.27;135531;1273;24244;-83
2024/01/09 02:11:31;;;;;;;71.50;21.70;;;;;;;-16.56;70.77;100772.88;135512;1276;21772;-83
2024/01/09 02:14:33;;;;;;;57.60;20.80;;;;;;;-16.54;70.89;100774.36;135507;1276;22540;-81
2024/01/09 02:17:36;;;;;;;67.50;19.70;;;;;;;-16.58;70.55;100771.73;135518;1275;22652;-83
2024/01/09 02:20:38;;;;;;;70.10;21.30;;;;;;;-16.62;70.53;100773.75;135422;1276;22558;-81
2024/01/09 02:23:40;;;;;;;65.10;21.20;;;;;;;-16.67;70.28;100775.70;135495;1276;22592;-82
2024/01/09 02:26:43;;;;;;;78.40;25.50;;;;;;;-16.73;70.42;100775.94;135451;1276;24789;-82
2024/01/09 02:29:45;;;;;;;77.60;21.70;;;;;;;-16.72;70.28;100775.89;135561;1276;22569;-83
2024/01/09 02:32:48;;;;;;;71.80;21.10;;;;;;;-16.78;69.83;100776.94;135448;1276;22531;-83
2024/01/09 02:35:50;;;;;;;62.10;19.50;;;;;;;-16.83;69.85;100776.77;135549;1276;22581;-83
2024/01/09 02:38:53;;;;;;;61.40;22.00;;;;;;;-16.85;69.90;100776.50;135507;1276;23289;-82
2024/01/09 02:41:55;;;;;;;65.00;20.70;;;;;;;-16.87;70.12;100779.91;135541;1275;25867;-83
2024/01/09 02:44:57;;;;;;;64.10;19.90;;;;;;;-16.86;70.10;100784.77;135547;1275;22579;-82
2024/01/09 02:48:00;;;;;;;69.90;19.80;;;;;;;-16.86;70.26;100782.91;135486;1275;22640;-81
2024/01/09 02:51:02;;;;;;;79.10;23.10;;;;;;;-16.89;70.16;100785.59;135518;1272;24228;-82
2024/01/09 02:54:05;;;;;;;70.30;25.00;;;;;;;-16.93;70.07;100784.14;135515;1275;22520;-83
2024/01/09 02:57:07;;;;;;;76.50;21.50;;;;;;;-16.93;70.23;100779.87;135483;1275;22532;-81
2024/01/09 03:00:10;;;;;;;66.90;21.10;;;;;;;-16.93;69.71;100777.27;135571;1275;22528;-83
2024/01/09 03:03:12;;;;;;;75.40;24.50;;;;;;;-16.98;69.84;100780.15;135524;1275;23099;-83
2024/01/09 03:06:14;;;;;;;91.10;23.90;;;;;;;-17.05;69.52;100777.23;135517;1275;22627;-81
2024/01/09 03:09:18;;;;;;;74.60;23.10;;;;;;;-17.06;70.15;100783.06;135505;1275;22655;-82
2024/01/09 03:12:20;;;;;;;87.30;27.10;;;;;;;-17.08;69.99;100783.01;135535;1275;22538;-83
2024/01/09 03:15:22;;;;;;;78.00;24.30;;;;;;;-17.10;69.84;100782.28;135528;1275;23034;-82
2024/01/09 03:18:25;;;;;;;71.40;21.60;;;;;;;-17.10;69.77;100780.83;135702;1275;22667;-81
2024/01/09 03:21:27;;;;;;;78.10;23.70;;;;;;;-17.15;69.47;100786.50;135667;1270;22640;-80
2024/01/09 03:24:30;;;;;;;79.00;24.30;;;;;;;-17.18;69.56;100785.87;135409;1275;25174;-81
2024/01/09 03:27:32;;;;;;;76.20;22.00;;;;;;;-17.18;69.76;100782.83;135484;1275;22555;-82
2024/01/09 03:30:35;;;;;;;76.40;25.00;;;;;;;-17.19;69.79;100786.68;135478;1273;22488;-84
2024/01/09 03:33:38;;;;;;;81.50;23.40;;;;;;;-17.18;70.10;100792.68;135624;1275;26327;-81
2024/01/09 03:36:41;;;;;;;84.90;23.30;;;;;;;-17.18;69.73;100789.14;135697;1272;22550;-81
2024/01/09 03:39:44;;;;;;;74.30;24.00;;;;;;;-17.22;69.63;100784.19;135679;1275;22534;-81
2024/01/09 03:42:46;;;;;;;77.00;22.10;;;;;;;-17.22;69.59;100783.05;135642;1272;22530;-81
2024/01/09 03:45:50;;;;;;;73.20;23.80;;;;;;;-17.24;69.00;100786.36;135735;1275;22560;-81
2024/01/09 03:48:52;;;;;;;78.50;22.90;;;;;;;-17.27;69.37;100785.63;136259;1275;23027;-80
2024/01/09 03:51:55;;;;;;;81.10;24.50;;;;;;;-17.30;69.19;100783.32;135775;1275;25369;-82
2024/01/09 03:54:57;;;;;;;55.70;20.50;;;;;;;-17.30;68.93;100783.27;135738;1275;22551;-81
2024/01/09 03:58:00;;;;;;;82.90;24.00;;;;;;;-17.33;69.11;100785.89;135636;1253;22958;-83
2024/01/09 04:01:02;;;;;;;63.60;21.90;;;;;;;-17.33;69.25;100791.16;135557;1275;22854;-80
2024/01/09 04:04:04;;;;;;;68.40;22.70;;;;;;;-17.36;69.10;100787.55;135509;1275;22555;-81
2024/01/09 04:07:07;;;;;;;70.90;21.90;;;;;;;-17.42;69.05;100789.54;135525;1275;22522;-82
2024/01/09 04:10:09;;;;;;;76.40;23.20;;;;;;;-17.49;68.72;100793.34;135598;1275;22489;-84
2024/01/09 04:13:12;;;;;;;66.30;23.20;;;;;;;-17.51;68.89;100795.79;135569;1275;22514;-84
2024/01/09 04:16:14;;;;;;;71.40;22.70;;;;;;;-17.52;68.94;100800.27;135544;1275;24743;-84
2024/01/09 04:19:17;;;;;;;81.00;23.90;;;;;;;-17.54;69.22;100802.27;135533;1275;22642;-83
2024/01/09 04:22:19;;;;;;;65.40;21.90;;;;;;;-17.52;69.22;100804.27;135597;1275;22564;-81
2024/01/09 04:25:21;;;;;;;73.40;25.10;;;;;;;-17.55;68.82;100811.48;135711;1275;22542;-81
2024/01/09 04:28:24;;;;;;;57.50;18.90;;;;;;;-17.53;68.98;100816.24;135685;1275;22576;-81
2024/01/09 04:31:26;;;;;;;78.30;19.80;;;;;;;-17.54;68.86;100823.14;135799;1275;22223;-81
2024/01/09 04:34:29;;;;;;;64.30;22.90;;;;;;;-17.58;68.74;100828.75;135775;1275;22510;-81
2024/01/09 04:37:32;;;;;;;64.70;21.90;;;;;;;-17.62;68.95;100832.74;135770;1275;22540;-82
2024/01/09 04:40:34;;;;;;;88.40;26.40;;;;;;;-17.62;68.95;100836.95;135818;1275;22527;-82
2024/01/09 04:43:37;;;;;;;65.60;21.70;;;;;;;-17.60;70.63;100835.73;135833;1275;22523;-82
2024/01/09 04:46:39;;;;;;;91.90;28.30;;;;;;;-17.03;80.93;100829.09;135958;1275;22541;-82
2024/01/09 04:49:41;;;;;;;56.50;19.40;;;;;;;-17.07;73.42;100832.82;135881;1275;22836;-82
2024/01/09 04:52:44;;;;;;;73.30;22.80;;;;;;;-17.25;71.21;100841.29;135832;1275;22104;-83
2024/01/09 04:55:46;;;;;;;94.20;27.80;;;;;;;-17.37;70.47;100843.95;135772;1275;22381;-82
2024/01/09 04:58:53;;;;;;;68.30;21.30;;;;;;;-17.45;70.14;100838.54;135931;1275;23866;-82
2024/01/09 05:01:55;;;;;;;66.10;23.20;;;;;;;-17.50;70.01;100845.52;136108;1275;22507;-82
2024/01/09 05:04:58;;;;;;;82.80;24.80;;;;;;;-17.54;70.06;100848.86;136083;1275;22558;-82
2024/01/09 05:08:01;;;;;;;74.60;23.30;;;;;;;-17.56;69.76;100853.02;135286;1275;22585;-80
2024/01/09 05:11:03;;;;;;;81.10;25.10;;;;;;;-17.60;69.54;100854.48;135254;1275;22703;-80
2024/01/09 05:14:05;;;;;;;93.60;27.60;;;;;;;-17.64;69.43;100863.13;135242;1275;22527;-80
2024/01/09 05:17:08;;;;;;;79.20;24.70;;;;;;;-17.68;69.20;100865.46;135153;1275;22527;-80
2024/01/09 05:20:10;;;;;;;72.70;23.50;;;;;;;-17.71;68.99;100865.09;135088;1275;22605;-78
2024/01/09 05:23:13;;;;;;;82.10;22.30;;;;;;;-17.73;69.18;100865.48;135045;1275;23227;-80
2024/01/09 05:26:15;;;;;;;63.90;21.70;;;;;;;-17.78;69.31;100863.56;134969;1275;22527;-79
2024/01/09 05:29:18;;;;;;;80.80;24.80;;;;;;;-17.76;69.31;100868.83;135200;1275;22600;-79
2024/01/09 05:32:20;;;;;;;74.70;23.70;;;;;;;-17.77;69.03;100866.38;135216;1275;25226;-79
2024/01/09 05:35:23;;;;;;;76.40;22.40;;;;;;;-17.76;68.97;100868.70;135093;1276;22573;-80
2024/01/09 05:38:25;;;;;;;78.80;23.80;;;;;;;-17.77;68.87;100869.69;135033;1275;24230;-80
2024/01/09 05:41:28;;;;;;;63.70;18.30;;;;;;;-17.80;68.55;100875.02;135066;1276;22511;-79
2024/01/09 05:44:30;;;;;;;90.70;24.70;;;;;;;-17.84;67.95;100881.95;135878;1276;22589;-80
2024/01/09 05:47:33;;;;;;;50.90;18.00;;;;;;;-17.82;68.10;100890.39;136446;1275;22547;-79
2024/01/09 05:50:35;;;;;;;71.20;19.00;;;;;;;-17.85;68.35;100888.62;135846;1276;22657;-79
2024/01/09 05:53:38;;;;;;;42.20;17.60;;;;;;;-17.84;68.56;100887.84;136196;1276;22916;-80
2024/01/09 05:56:41;;;;;;;59.50;20.10;;;;;;;-17.83;68.77;100890.52;136088;1275;22470;-79
2024/01/09 05:59:45;;;;;;;50.90;18.80;;;;;;;-17.81;68.96;100888.36;134931;1275;22457;-79
2024/01/09 06:02:48;;;;;;;61.40;20.10;;;;;;;-17.77;68.78;100890.65;134796;1275;22484;-79
2024/01/09 06:05:50;;;;;;;57.30;18.10;;;;;;;-17.76;68.61;100887.70;134772;1276;22551;-79
2024/01/09 06:08:53;;;;;;;58.50;21.30;;;;;;;-17.76;68.44;100890.14;134758;1275;22667;-79
2024/01/09 06:11:55;;;;;;;67.90;20.70;;;;;;;-17.76;68.48;100891.02;134855;1276;23171;-77
2024/01/09 06:14:58;;;;;;;59.50;20.10;;;;;;;-17.72;68.51;100897.87;134936;1276;22540;-79
2024/01/09 06:18:00;;;;;;;62.20;19.50;;;;;;;-17.73;68.32;100906.71;134933;1275;24167;-79
2024/01/09 06:21:03;;;;;;;55.20;17.50;;;;;;;-17.79;67.93;100904.77;134907;1276;22583;-79
2024/01/09 06:24:05;;;;;;;76.20;22.50;;;;;;;-17.79;68.02;100904.61;134817;1276;23136;-79
2024/01/09 06:27:08;;;;;;;65.30;22.20;;;;;;;-17.69;68.34;100902.73;136174;1276;22535;-79
2024/01/09 06:30:10;;;;;;;46.60;16.40;;;;;;;-17.64;67.99;100907.17;135797;1276;21857;-77
2024/01/09 06:33:13;;;;;;;65.70;20.80;;;;;;;-17.67;68.17;100905.42;135080;1276;22496;-78
2024/01/09 06:36:15;;;;;;;76.60;22.90;;;;;;;-17.68;67.81;100910.23;135075;1275;22024;-78
2024/01/09 06:39:18;;;;;;;78.90;22.50;;;;;;;-17.74;67.59;100917.96;134948;1275;23387;-78
2024/01/09 06:42:21;;;;;;;61.50;19.80;;;;;;;-17.76;67.30;100924.34;134898;1276;24206;-79
2024/01/09 06:45:23;;;;;;;51.90;18.50;;;;;;;-17.78;67.14;100929.96;134909;1275;23127;-78
2024/01/09 06:48:25;;;;;;;72.20;21.00;;;;;;;-17.76;67.64;100927.88;134844;1275;22551;-77
2024/01/09 06:51:29;;;;;;;70.40;20.60;;;;;;;-17.70;67.73;100925.55;134751;1275;23179;-80
2024/01/09 06:54:31;;;;;;;51.90;19.20;;;;;;;-17.65;67.57;100926.45;135024;1275;22681;-79
2024/01/09 06:57:34;;;;;;;64.10;20.10;;;;;;;-17.62;67.27;100923.33;134969;1275;22599;-80
2024/01/09 07:00:36;;;;;;;50.40;16.50;;;;;;;-17.62;67.73;100922.42;134893;1276;22566;-78
2024/01/09 07:03:39;;;;;;;57.50;21.60;;;;;;;-17.59;67.67;100921.39;134993;1276;22532;-79
2024/01/09 07:06:41;;;;;;;65.10;19.60;;;;;;;-17.52;67.57;100920.91;134941;1276;22630;-80
2024/01/09 07:09:43;;;;;;;61.10;20.80;;;;;;;-17.50;67.27;100922.11;135008;1276;22626;-78
2024/01/09 07:12:46;;;;;;;50.30;17.30;;;;;;;-17.52;66.79;100923.28;135048;1276;22612;-79
2024/01/09 07:15:49;;;;;;;82.80;20.50;;;;;;;-17.53;66.97;100928.90;134957;1276;24151;-79
2024/01/09 07:18:51;;;;;;;58.80;20.40;;;;;;;-17.49;67.33;100929.91;134861;1275;24203;-79
2024/01/09 07:21:54;;;;;;;49.50;17.40;;;;;;;-17.43;67.25;100930.17;134750;1276;24902;-78
2024/01/09 07:24:56;;;;;;;67.60;21.60;;;;;;;-17.37;67.33;100930.05;134747;1276;23132;-78
2024/01/09 07:27:59;;;;;;;79.80;22.30;;;;;;;-17.25;67.40;100931.44;134877;1275;22633;-79
2024/01/09 07:31:02;;;;;;;61.30;20.00;;;;;;;-17.15;67.54;100927.14;135004;1275;22517;-79
2024/01/09 07:34:04;;;;;;;87.00;25.00;;;;;;;-17.06;67.40;100930.53;135016;1275;22116;-80
2024/01/09 07:37:07;;;;;;;77.10;25.30;;;;;;;-16.95;67.34;100926.64;135029;1275;22562;-79
2024/01/09 07:40:10;;;;;;;114.60;36.90;;;;;;;-16.84;67.06;100922.35;135270;1275;22521;-81
2024/01/09 07:43:12;;;;;;;93.60;31.40;;;;;;;-16.73;67.23;100921.90;135174;1275;22543;-79
2024/01/09 07:46:14;;;;;;;95.60;32.40;;;;;;;-16.59;67.08;100922.33;135016;1275;22574;-79
2024/01/09 07:49:17;;;;;;;97.50;28.50;;;;;;;-16.47;67.16;100920.34;135639;1275;22643;-78
2024/01/09 07:52:19;;;;;;;87.80;28.90;;;;;;;-16.31;67.73;100924.80;135473;1275;22493;-78
2024/01/09 07:55:22;;;;;;;65.80;23.00;;;;;;;-16.12;67.37;100923.11;135200;1275;22851;-78
2024/01/09 07:58:24;;;;;;;101.60;30.00;;;;;;;-15.99;67.24;100922.85;135035;1275;22334;-78
2024/01/09 08:01:29;;;;;;;76.00;24.50;;;;;;;-15.84;67.57;100927.00;134956;1275;22513;-78
2024/01/09 08:04:31;;;;;;;73.80;23.90;;;;;;;-15.63;67.47;100927.85;135041;1275;22945;-78
2024/01/09 08:07:34;;;;;;;68.50;21.60;;;;;;;-15.41;67.69;100931.71;135159;1275;22618;-79
2024/01/09 08:10:36;;;;;;;76.60;27.90;;;;;;;-15.25;67.64;100925.48;134944;1275;22713;-79
2024/01/09 08:13:39;;;;;;;71.60;23.70;;;;;;;-15.05;67.79;100930.08;135026;1275;25886;-78
2024/01/09 08:16:41;;;;;;;86.10;31.80;;;;;;;-14.86;68.01;100927.87;135088;1275;23101;-78
2024/01/09 08:19:44;;;;;;;100.80;32.00;;;;;;;-14.64;68.09;100930.98;134998;1275;22675;-78
2024/01/09 08:22:48;;;;;;;107.20;37.00;;;;;;;-14.36;68.35;100930.10;135031;1275;22820;-78
2024/01/09 08:25:50;;;;;;;135.60;39.40;;;;;;;-14.13;68.26;100923.82;134951;1275;24121;-78
2024/01/09 08:28:53;;;;;;;127.50;39.80;;;;;;;-13.90;68.43;100921.31;135035;1275;25559;-77
2024/01/09 08:31:55;;;;;;;117.40;39.20;;;;;;;-13.63;68.45;100922.50;134866;1275;22642;-77
2024/01/09 08:34:58;;;;;;;130.80;39.70;;;;;;;-13.44;68.62;100921.70;134901;1275;22739;-78
2024/01/09 08:38:00;;;;;;;116.30;39.00;;;;;;;-13.20;68.46;100922.65;134776;1275;22574;-78
2024/01/09 08:41:03;;;;;;;145.30;40.70;;;;;;;-12.99;68.36;100925.50;134846;1275;22589;-78
2024/01/09 08:44:05;;;;;;;124.70;38.90;;;;;;;-12.73;69.26;100921.04;134784;1275;22922;-77
2024/01/09 08:47:07;;;;;;;141.40;48.00;;;;;;;-11.89;78.74;100916.54;134719;1252;23202;-79
2024/01/09 08:50:10;;;;;;;173.60;59.50;;;;;;;-11.63;71.96;100921.94;134689;1275;22633;-79
2024/01/09 08:53:12;;;;;;;170.20;58.60;;;;;;;-11.45;70.33;100918.55;134921;1275;22839;-78
2024/01/09 08:56:15;;;;;;;214.60;70.60;;;;;;;-11.26;69.89;100917.04;134886;1275;22635;-79
2024/01/09 08:59:17;;;;;;;235.90;81.70;;;;;;;-11.07;69.57;100916.69;134806;1275;22659;-80
2024/01/09 09:02:20;;;;;;;186.80;62.50;;;;;;;-10.87;69.98;100916.85;134857;1275;22618;-79
2024/01/09 09:05:23;;;;;;;166.20;57.70;;;;;;;-10.62;69.96;100915.27;134996;1275;22711;-78
2024/01/09 09:08:26;;;;;;;174.60;61.00;;;;;;;-10.43;69.57;100914.11;134938;1275;22629;-78
2024/01/09 09:11:29;;;;;;;188.80;70.30;;;;;;;-10.27;69.88;100916.45;134872;1275;22738;-79
2024/01/09 09:14:31;;;;;;;171.30;65.00;;;;;;;-10.08;69.97;100912.15;134879;1275;23471;-79
2024/01/09 09:17:34;;;;;;;109.20;41.10;;;;;;;-9.92;70.27;100912.69;134917;1275;22896;-78
2024/01/09 09:20:37;;;;;;;101.60;52.70;;;;;;;-9.71;70.51;100914.94;134811;1275;25546;-78
2024/01/09 09:23:39;;;;;;;86.60;33.40;;;;;;;-9.45;70.78;100917.54;134732;1275;23527;-79
2024/01/09 09:26:42;;;;;;;68.00;29.20;;;;;;;-9.25;70.53;100916.57;134712;1269;23113;-79
2024/01/09 09:29:44;;;;;;;62.90;25.40;;;;;;;-9.10;70.18;100920.41;134590;1275;24180;-79
2024/01/09 09:32:47;;;;;;;69.70;28.10;;;;;;;-8.98;69.65;100921.39;136707;1275;22611;-79
2024/01/09 09:35:49;;;;;;;60.30;26.20;;;;;;;-8.86;69.67;100923.36;136405;1275;23118;-79
2024/01/09 09:38:55;;;;;;;57.50;23.90;;;;;;;-8.74;69.50;100921.14;134820;1272;22997;-80
2024/01/09 09:41:57;;;;;;;67.60;27.20;;;;;;;-8.61;69.20;100916.88;134898;1275;22580;-82
2024/01/09 09:45:00;;;;;;;61.40;25.50;;;;;;;-8.42;68.82;100911.60;135520;1275;22588;-79
2024/01/09 09:48:02;;;;;;;59.10;24.80;;;;;;;-8.30;69.04;100912.12;135669;1275;23772;-79
2024/01/09 09:51:05;;;;;;;67.80;27.70;;;;;;;-8.23;68.70;100907.91;135025;1275;22661;-79
2024/01/09 09:54:07;;;;;;;62.00;25.80;;;;;;;-8.12;68.82;100903.92;134875;1275;23028;-79
2024/01/09 09:57:10;;;;;;;68.70;26.90;;;;;;;-8.05;68.43;100901.59;134736;1275;22715;-79
2024/01/09 10:00:12;;;;;;;84.80;33.00;;;;;;;-8.11;67.03;100898.99;134726;1275;22633;-79
2024/01/09 10:03:15;;;;;;;99.40;40.30;;;;;;;-8.23;66.95;100888.11;134800;1272;22632;-79
2024/01/09 10:06:17;;;;;;;77.50;33.00;;;;;;;-8.19;67.51;100891.11;134784;1275;22727;-78
2024/01/09 10:09:20;;;;;;;81.10;30.30;;;;;;;-8.19;67.05;100885.36;134778;1275;23143;-78
2024/01/09 10:12:24;;;;;;;97.40;34.50;;;;;;;-8.17;67.72;100887.02;134692;1275;22608;-77
2024/01/09 10:15:27;;;;;;;101.40;35.30;;;;;;;-8.05;67.90;100887.50;134656;1275;22966;-78
2024/01/09 10:18:30;;;;;;;104.90;39.20;;;;;;;-7.95;67.00;100886.61;134454;1275;234526;-79
2024/01/09 10:21:32;;;;;;;80.50;30.10;;;;;;;-8.06;66.74;100884.04;134714;1275;22626;-79
2024/01/09 10:24:34;;;;;;;62.30;25.70;;;;;;;-8.10;66.97;100883.28;134784;1276;24491;-79
2024/01/09 10:27:37;;;;;;;81.50;33.00;;;;;;;-8.09;67.61;100887.41;134776;1264;25106;-79
2024/01/09 10:30:40;;;;;;;79.00;32.10;;;;;;;-7.96;67.33;100885.32;134706;1275;23243;-79
2024/01/09 10:33:42;;;;;;;92.60;33.40;;;;;;;-8.02;66.61;100886.85;134763;1253;22494;-79
2024/01/09 10:36:45;;;;;;;77.90;30.60;;;;;;;-8.04;67.06;100889.23;134823;1276;22621;-79
2024/01/09 10:39:47;;;;;;;70.70;29.20;;;;;;;-8.07;66.46;100886.27;134873;1275;25286;-79
2024/01/09 10:42:50;;;;;;;64.40;28.50;;;;;;;-8.16;66.13;100882.02;134794;1275;23232;-79
2024/01/09 10:45:52;;;;;;;65.10;28.70;;;;;;;-8.30;65.49;100878.54;135011;1275;25450;-81
2024/01/09 10:48:54;;;;;;;72.80;29.20;;;;;;;-8.45;65.65;100872.10;135154;1276;22593;-79
2024/01/09 10:51:57;;;;;;;62.90;27.10;;;;;;;-8.43;66.50;100870.43;135201;1276;22573;-80
2024/01/09 10:54:59;;;;;;;67.50;28.40;;;;;;;-8.50;65.15;100867.73;135060;1272;26356;-80
2024/01/09 10:58:02;;;;;;;63.80;27.00;;;;;;;-8.70;65.56;100873.95;134994;1275;22844;-80
2024/01/09 11:01:04;;;;;;;71.10;28.60;;;;;;;-8.77;65.53;100877.89;135007;1275;22748;-80
2024/01/09 11:04:07;;;;;;;74.10;30.10;;;;;;;-8.84;65.54;100877.15;134950;1275;22638;-78
2024/01/09 11:07:09;;;;;;;75.70;31.90;;;;;;;-8.84;66.21;100870.21;134906;1275;23673;-80
2024/01/09 11:10:12;;;;;;;87.20;35.20;;;;;;;-8.71;67.05;100872.83;136501;1275;22716;-79
2024/01/09 11:13:14;;;;;;;79.70;33.30;;;;;;;-8.54;67.11;100866.23;134880;1275;26501;-79
2024/01/09 11:16:17;;;;;;;73.70;30.00;;;;;;;-8.46;66.88;100865.73;135028;1272;22584;-79
2024/01/09 11:19:19;;;;;;;76.00;28.30;;;;;;;-8.40;66.71;100865.52;135009;1272;26334;-80
2024/01/09 11:22:22;;;;;;;64.90;26.50;;;;;;;-8.30;66.52;100863.66;135022;1275;23340;-80
2024/01/09 11:25:24;;;;;;;63.20;27.30;;;;;;;-8.34;65.48;100859.34;134966;1253;24437;-80
2024/01/09 11:28:27;;;;;;;64.60;28.30;;;;;;;-8.43;65.22;100860.88;135025;1272;22863;-80
2024/01/09 11:31:30;;;;;;;71.10;29.00;;;;;;;-8.48;65.31;100869.17;135028;1275;24151;-79
2024/01/09 11:34:33;;;;;;;69.70;27.00;;;;;;;-8.44;66.18;100862.23;134897;1275;22580;-81
2024/01/09 11:37:36;;;;;;;62.70;25.60;;;;;;;-8.33;66.30;100860.24;135801;1275;23926;-80
2024/01/09 11:40:38;;;;;;;60.10;25.70;;;;;;;-8.26;66.06;100861.98;136890;1275;22213;-79
2024/01/09 11:43:41;;;;;;;61.50;25.80;;;;;;;-8.23;65.64;100857.38;136746;1265;22591;-80
2024/01/09 11:46:43;;;;;;;81.20;33.80;;;;;;;-8.22;65.30;100851.59;137114;1275;22752;-80
2024/01/09 11:49:45;;;;;;;58.30;26.30;;;;;;;-8.18;65.25;100846.52;136891;1254;22271;-79
2024/01/09 11:52:48;;;;;;;60.90;26.30;;;;;;;-8.21;65.35;100844.06;136626;1275;22591;-80
2024/01/09 11:55:50;;;;;;;70.50;27.30;;;;;;;-8.27;65.47;100844.17;135526;1275;22591;-80
2024/01/09 11:58:53;;;;;;;74.90;31.00;;;;;;;-8.16;65.98;100844.05;135221;1275;22707;-80
2024/01/09 12:01:56;;;;;;;76.20;28.40;;;;;;;-8.02;66.05;100844.52;135264;1256;25192;-80
2024/01/09 12:04:58;;;;;;;75.00;28.80;;;;;;;-7.90;65.47;100847.60;135112;1275;25482;-80
2024/01/09 12:08:01;;;;;;;73.10;30.70;;;;;;;-7.82;65.78;100849.11;135097;1275;22576;-81
2024/01/09 12:11:03;;;;;;;74.30;28.30;;;;;;;-6.55;88.60;100832.67;136788;1275;22634;-80
2024/01/09 12:14:07;;;;;;;76.70;30.30;;;;;;;-3.38;100.00;100825.00;136789;1275;22573;-82
2024/01/09 12:17:09;;;;;;;72.30;29.50;;;;;;;-4.35;93.98;100833.55;136759;1275;22583;-81
2024/01/09 12:20:12;;;;;;;62.20;26.40;;;;;;;-5.16;67.24;100838.09;135111;1275;22720;-80
2024/01/09 12:23:14;;;;;;;61.90;27.70;;;;;;;-5.64;66.29;100843.29;136578;1275;23048;-80
2024/01/09 12:26:18;;;;;;;63.40;27.10;;;;;;;-5.95;65.62;100845.66;135184;1275;22833;-80
2024/01/09 12:29:21;;;;;;;62.10;26.50;;;;;;;-6.17;64.98;100850.96;135232;1275;25093;-80
2024/01/09 12:32:23;;;;;;;74.40;30.20;;;;;;;-6.30;64.72;100851.71;135375;1275;22538;-78
2024/01/09 12:35:26;;;;;;;66.40;29.10;;;;;;;-6.46;63.85;100850.80;134782;1275;25278;-83
2024/01/09 12:38:28;;;;;;;68.50;28.60;;;;;;;-6.56;64.00;100849.44;136721;1275;22560;-82
2024/01/09 12:41:31;;;;;;;73.10;30.30;;;;;;;-6.63;63.66;100848.98;136426;1253;22588;-80
2024/01/09 12:44:34;;;;;;;69.60;25.60;;;;;;;-6.63;64.45;100851.31;134857;1275;25519;-80
2024/01/09 12:47:37;;;;;;;95.50;40.60;;;;;;;-6.60;67.27;100852.66;134805;1275;23584;-83
2024/01/09 12:50:39;;;;;;;70.40;30.50;;;;;;;-6.23;66.45;100847.08;136338;1275;22546;-83
2024/01/09 12:53:43;;;;;;;64.20;25.50;;;;;;;-6.20;64.42;100847.11;136708;1275;22535;-84
2024/01/09 12:56:46;;;;;;;62.30;28.20;;;;;;;-6.29;63.49;100845.06;136711;1275;23194;-82
2024/01/09 12:59:49;;;;;;;68.80;28.60;;;;;;;-6.34;63.78;100844.31;136460;1275;22550;-83
2024/01/09 13:02:54;;;;;;;64.30;27.10;;;;;;;-6.40;63.40;100840.70;136505;1275;22252;-83
2024/01/09 13:05:56;;;;;;;90.60;36.20;;;;;;;-6.52;62.86;100841.45;136647;1275;22593;-83
2024/01/09 13:08:59;;;;;;;68.80;28.60;;;;;;;-6.60;63.61;100845.27;136735;1275;22632;-80
2024/01/09 13:12:01;;;;;;;74.40;31.00;;;;;;;-6.60;64.00;100847.91;134675;1275;22556;-81
2024/01/09 13:15:04;;;;;;;82.20;33.60;;;;;;;-6.63;63.08;100843.40;134536;1275;22605;-80
2024/01/09 13:18:06;;;;;;;83.70;32.50;;;;;;;-6.71;63.18;100841.98;134575;1276;22614;-80
2024/01/09 13:21:08;;;;;;;89.40;36.30;;;;;;;-6.74;63.36;100839.77;134627;1275;22611;-82
2024/01/09 13:24:11;;;;;;;76.00;32.10;;;;;;;-6.80;63.06;100838.81;136683;1276;22680;-78
2024/01/09 13:27:14;;;;;;;86.60;33.60;;;;;;;-6.82;64.12;100832.63;134599;1275;22621;-84
2024/01/09 13:30:17;;;;;;;94.50;37.00;;;;;;;-6.76;63.96;100834.98;136853;1275;22646;-83